createdAt,value
2019-03-11T00:00:18.229Z,16.8
2019-03-11T00:01:20.419Z,16.8
2019-03-11T00:02:22.838Z,16.8
2019-03-11T00:03:24.999Z,16.8
2019-03-11T00:04:28.283Z,16.8
2019-03-11T00:05:30.165Z,16.8
2019-03-11T00:06:32.691Z,16.8
2019-03-11T00:07:35.114Z,16.9
2019-03-11T00:08:37.541Z,16.9
2019-03-11T00:09:39.713Z,17
2019-03-11T00:10:41.587Z,16.9
2019-03-11T00:11:44.006Z,16.9
2019-03-11T00:12:46.159Z,17
2019-03-11T00:13:48.595Z,16.9
2019-03-11T00:14:50.760Z,17
2019-03-11T00:15:53.181Z,16.9
2019-03-11T00:16:55.350Z,17
2019-03-11T00:17:57.494Z,17
2019-03-11T00:18:59.930Z,17
2019-03-11T00:20:02.085Z,17
2019-03-11T00:21:04.252Z,17
2019-03-11T00:22:06.669Z,17
2019-03-11T00:23:09.099Z,17
2019-03-11T00:24:11.247Z,17
2019-03-11T00:25:13.387Z,17
2019-03-11T00:26:15.543Z,17
2019-03-11T00:27:17.729Z,17
2019-03-11T00:28:19.893Z,17
2019-03-11T00:29:22.042Z,17
2019-03-11T00:30:24.480Z,17
2019-03-11T00:31:26.908Z,17
2019-03-11T00:32:29.349Z,17.1
2019-03-11T00:33:31.780Z,17.1
2019-03-11T00:34:34.221Z,17.1
2019-03-11T00:35:36.660Z,17.1
2019-03-11T00:36:38.532Z,17.2
2019-03-11T00:37:40.953Z,17
2019-03-11T00:38:43.077Z,17.2
2019-03-11T00:39:45.213Z,17.2
2019-03-11T00:40:47.645Z,17.1
2019-03-11T00:41:49.528Z,17
2019-03-11T00:42:51.964Z,17
2019-03-11T00:43:54.112Z,17.2
2019-03-11T00:44:56.622Z,17.1
2019-03-11T00:45:58.226Z,17.2
2019-03-11T00:47:00.371Z,17.2
2019-03-11T00:48:03.257Z,17.2
2019-03-11T00:49:05.681Z,17.2
2019-03-11T00:50:07.851Z,17.2
2019-03-11T00:51:10.277Z,17.2
2019-03-11T00:52:12.489Z,17.2
2019-03-11T00:53:14.661Z,17.2
2019-03-11T00:54:17.166Z,17.2
2019-03-11T00:55:19.338Z,17.2
2019-03-11T00:56:21.765Z,17.2
2019-03-11T00:57:24.186Z,17.2
2019-03-11T00:58:26.617Z,17.2
2019-03-11T00:59:28.779Z,17.2
2019-03-11T01:00:30.721Z,17.3
2019-03-11T01:01:33.161Z,17.2
2019-03-11T01:02:35.312Z,17.3
2019-03-11T01:03:37.459Z,17.3
2019-03-11T01:04:39.638Z,17.3
2019-03-11T01:05:42.063Z,17.3
2019-03-11T01:06:44.489Z,17.3
2019-03-11T01:07:46.908Z,17.3
2019-03-11T01:08:49.082Z,17.3
2019-03-11T01:09:51.521Z,17.3
2019-03-11T01:10:53.957Z,17.3
2019-03-11T01:11:56.129Z,17.3
2019-03-11T01:12:58.289Z,17.4
2019-03-11T01:14:00.712Z,17.3
2019-03-11T01:15:03.153Z,17.3
2019-03-11T01:16:05.588Z,17.3
2019-03-11T01:17:08.020Z,17.4
2019-03-11T01:18:10.187Z,17.4
2019-03-11T01:19:12.615Z,17.3
2019-03-11T01:20:14.759Z,17.4
2019-03-11T01:21:17.187Z,17.4
2019-03-11T01:22:19.614Z,17.3
2019-03-11T01:23:22.053Z,17.4
2019-03-11T01:24:24.230Z,17.3
2019-03-11T01:25:26.673Z,17.4
2019-03-11T01:26:29.097Z,17.2
2019-03-11T01:27:31.259Z,17.4
2019-03-11T01:28:33.433Z,17.3
2019-03-11T01:29:35.337Z,17.4
2019-03-11T01:30:37.493Z,17.4
2019-03-11T01:31:39.934Z,17.4
2019-03-11T01:32:42.085Z,17.5
2019-03-11T01:33:44.519Z,17.4
2019-03-11T01:34:46.955Z,17.3
2019-03-11T01:35:49.380Z,17.3
2019-03-11T01:36:51.256Z,17.4
2019-03-11T01:37:53.417Z,17.5
2019-03-11T01:38:55.567Z,17.4
2019-03-11T01:39:57.727Z,17.4
2019-03-11T01:40:59.886Z,17.5
2019-03-11T01:42:02.311Z,17.5
2019-03-11T01:43:04.457Z,17.4
2019-03-11T01:44:06.339Z,17.5
2019-03-11T01:45:08.508Z,17.5
2019-03-11T01:46:10.937Z,17.4
2019-03-11T01:47:13.391Z,17.4
2019-03-11T01:48:15.827Z,17.4
2019-03-11T01:49:17.708Z,17.4
2019-03-11T01:50:20.491Z,17.5
2019-03-11T01:51:22.353Z,17.4
2019-03-11T01:52:24.509Z,17.4
2019-03-11T01:53:26.685Z,17.4
2019-03-11T01:54:28.839Z,17.4
2019-03-11T01:55:31.000Z,17.4
2019-03-11T01:56:33.177Z,17.5
2019-03-11T01:57:35.606Z,17.5
2019-03-11T01:58:38.042Z,17.5
2019-03-11T01:59:40.191Z,17.4
2019-03-11T02:00:42.351Z,17.5
2019-03-11T02:01:44.789Z,17.4
2019-03-11T02:02:51.208Z,17.5
2019-03-11T02:03:53.652Z,17.4
2019-03-11T02:04:55.800Z,17.5
2019-03-11T02:05:58.274Z,17.4
2019-03-11T02:07:00.707Z,17.5
2019-03-11T02:08:03.143Z,17.5
2019-03-11T02:09:05.316Z,17.4
2019-03-11T02:10:07.485Z,17.4
2019-03-11T02:11:09.651Z,17.5
2019-03-11T02:12:11.797Z,17.5
2019-03-11T02:13:13.694Z,17.5
2019-03-11T02:14:15.858Z,17.5
2019-03-11T02:15:17.704Z,17.5
2019-03-11T02:16:20.134Z,17.4
2019-03-11T02:17:22.559Z,17.5
2019-03-11T02:18:24.433Z,17.4
2019-03-11T02:19:26.867Z,17.5
2019-03-11T02:20:29.294Z,17.5
2019-03-11T02:21:31.729Z,17.4
2019-03-11T02:22:34.175Z,17.4
2019-03-11T02:23:36.601Z,17.5
2019-03-11T02:24:39.047Z,17.4
2019-03-11T02:25:41.482Z,17.5
2019-03-11T02:26:43.920Z,17.6
2019-03-11T02:27:46.081Z,17.5
2019-03-11T02:28:48.506Z,17.5
2019-03-11T02:29:50.938Z,17.5
2019-03-11T02:30:53.366Z,17.5
2019-03-11T02:31:55.523Z,17.5
2019-03-11T02:32:57.670Z,17.5
2019-03-11T02:34:00.147Z,17.5
2019-03-11T02:35:02.372Z,17.4
2019-03-11T02:36:04.526Z,17.5
2019-03-11T02:37:06.958Z,17.5
2019-03-11T02:38:09.379Z,17.4
2019-03-11T02:39:11.526Z,17.5
2019-03-11T02:40:13.948Z,17.5
2019-03-11T02:41:16.216Z,17.6
2019-03-11T02:42:18.678Z,17.5
2019-03-11T02:43:21.127Z,17.5
2019-03-11T02:44:23.003Z,17.5
2019-03-11T02:45:25.418Z,17.5
2019-03-11T02:46:27.857Z,17.5
2019-03-11T02:47:30.297Z,17.5
2019-03-11T02:48:32.741Z,17.5
2019-03-11T02:49:35.160Z,17.5
2019-03-11T02:50:37.599Z,17.5
2019-03-11T02:51:40.066Z,17.4
2019-03-11T02:52:42.479Z,17.4
2019-03-11T02:53:44.620Z,17.5
2019-03-11T02:54:47.051Z,17.5
2019-03-11T02:56:53.929Z,17.5
2019-03-11T02:57:56.356Z,17.6
2019-03-11T02:58:58.886Z,17.5
2019-03-11T03:00:01.063Z,17.5
2019-03-11T03:01:03.501Z,17.4
2019-03-11T03:02:05.639Z,17.5
2019-03-11T03:03:08.120Z,17.4
2019-03-11T03:04:10.690Z,17.5
2019-03-11T03:05:12.886Z,17.4
2019-03-11T03:06:15.022Z,17.5
2019-03-11T03:07:17.461Z,17.6
2019-03-11T03:08:19.600Z,17.5
2019-03-11T03:09:21.741Z,17.6
2019-03-11T03:10:23.913Z,17.6
2019-03-11T03:11:26.069Z,17.5
2019-03-11T03:12:28.510Z,17.6
2019-03-11T03:13:30.711Z,17.5
2019-03-11T03:14:33.236Z,17.5
2019-03-11T03:15:35.399Z,17.6
2019-03-11T03:16:37.288Z,17.6
2019-03-11T03:17:39.716Z,17.6
2019-03-11T03:18:42.186Z,17.5
2019-03-11T03:19:44.689Z,17.5
2019-03-11T03:20:46.585Z,17.5
2019-03-11T03:21:49.052Z,17.6
2019-03-11T03:22:51.478Z,17.6
2019-03-11T03:23:53.633Z,17.7
2019-03-11T03:24:56.088Z,17.6
2019-03-11T03:25:58.257Z,17.5
2019-03-11T03:27:00.687Z,17.5
2019-03-11T03:28:03.497Z,17.5
2019-03-11T03:29:06.766Z,17.5
2019-03-11T03:30:09.204Z,17.7
2019-03-11T03:31:11.384Z,17.7
2019-03-11T03:32:13.911Z,17.5
2019-03-11T03:33:15.797Z,17.5
2019-03-11T03:34:17.701Z,17.5
2019-03-11T03:35:19.962Z,17.6
2019-03-11T03:36:22.120Z,17.6
2019-03-11T03:37:24.540Z,17.6
2019-03-11T03:39:31.712Z,17.5
2019-03-11T03:40:34.140Z,17.5
2019-03-11T03:41:36.307Z,17.5
2019-03-11T03:42:38.915Z,17.5
2019-03-11T03:43:41.008Z,17.6
2019-03-11T03:44:43.155Z,17.6
2019-03-11T03:45:45.599Z,17.6
2019-03-11T03:46:47.466Z,17.7
2019-03-11T03:47:49.628Z,17.6
2019-03-11T03:48:52.273Z,17.6
2019-03-11T03:49:54.733Z,17.6
2019-03-11T03:50:57.167Z,17.6
2019-03-11T03:51:59.323Z,17.7
2019-03-11T03:53:01.784Z,17.6
2019-03-11T03:54:03.678Z,17.6
2019-03-11T03:55:06.127Z,17.6
2019-03-11T03:56:08.549Z,17.6
2019-03-11T03:57:10.715Z,17.6
2019-03-11T03:58:13.149Z,17.6
2019-03-11T03:59:15.575Z,17.5
2019-03-11T04:00:17.723Z,17.6
2019-03-11T04:01:19.872Z,17.6
2019-03-11T04:02:22.064Z,17.6
2019-03-11T04:03:24.491Z,17.6
2019-03-11T04:04:26.954Z,17.6
2019-03-11T04:05:29.372Z,17.5
2019-03-11T04:06:31.510Z,17.5
2019-03-11T04:07:33.666Z,17.5
2019-03-11T04:08:36.087Z,17.4
2019-03-11T04:09:38.251Z,17.5
2019-03-11T04:10:40.415Z,17.5
2019-03-11T04:11:43.005Z,17.4
2019-03-11T04:12:44.873Z,17.4
2019-03-11T04:13:47.060Z,17.4
2019-03-11T04:14:49.477Z,17.4
2019-03-11T04:15:51.896Z,17.4
2019-03-11T04:16:53.764Z,17.3
2019-03-11T04:17:56.240Z,17.4
2019-03-11T04:18:58.417Z,17.4
2019-03-11T04:20:00.940Z,17.3
2019-03-11T04:21:03.373Z,17.3
2019-03-11T04:22:05.805Z,17.3
2019-03-11T04:23:07.976Z,17.3
2019-03-11T04:24:10.140Z,17.2
2019-03-11T04:25:12.306Z,17.3
2019-03-11T04:26:14.735Z,17.3
2019-03-11T04:27:17.171Z,17.3
2019-03-11T04:28:19.607Z,17.2
2019-03-11T04:29:22.040Z,17.2
2019-03-11T04:30:24.011Z,17.3
2019-03-11T04:31:26.420Z,17.3
2019-03-11T04:32:28.849Z,17.3
2019-03-11T04:33:31.291Z,17.3
2019-03-11T04:35:38.433Z,17.3
2019-03-11T04:36:40.589Z,17.2
2019-03-11T04:37:43.067Z,17.2
2019-03-11T04:38:46.095Z,17.3
2019-03-11T04:39:47.984Z,17.2
2019-03-11T04:40:49.870Z,17.2
2019-03-11T04:41:52.063Z,17.3
2019-03-11T04:42:54.219Z,17.2
2019-03-11T04:43:56.646Z,17.2
2019-03-11T04:44:58.804Z,17.2
2019-03-11T04:46:00.968Z,17.2
2019-03-11T04:47:03.392Z,17.2
2019-03-11T04:48:05.835Z,17.1
2019-03-11T04:49:08.259Z,17.1
2019-03-11T04:50:10.112Z,17.2
2019-03-11T04:51:12.530Z,17.1
2019-03-11T04:52:14.695Z,17.2
2019-03-11T04:53:16.556Z,17.1
2019-03-11T04:54:18.973Z,17.1
2019-03-11T04:55:21.445Z,17.1
2019-03-11T04:56:23.605Z,17
2019-03-11T04:57:25.739Z,17
2019-03-11T04:58:27.629Z,17.1
2019-03-11T04:59:29.786Z,17.1
2019-03-11T05:00:31.954Z,17
2019-03-11T05:01:34.114Z,17.2
2019-03-11T05:02:36.278Z,17.1
2019-03-11T05:03:38.698Z,17.2
2019-03-11T05:04:41.115Z,17.1
2019-03-11T05:05:43.560Z,17.1
2019-03-11T05:06:46.035Z,17.2
2019-03-11T05:07:48.471Z,17.1
2019-03-11T05:08:50.672Z,17.1
2019-03-11T05:09:52.544Z,17
2019-03-11T05:10:54.762Z,17.2
2019-03-11T05:11:56.922Z,17.1
2019-03-11T05:12:59.407Z,17
2019-03-11T05:14:01.582Z,17.1
2019-03-11T05:15:04.024Z,17
2019-03-11T05:16:05.938Z,17.1
2019-03-11T05:17:08.440Z,17
2019-03-11T05:18:10.606Z,16.9
2019-03-11T05:19:12.744Z,17.1
2019-03-11T05:20:15.187Z,17
2019-03-11T05:21:17.044Z,17.1
2019-03-11T05:22:19.178Z,17.1
2019-03-11T05:23:21.607Z,17
2019-03-11T05:24:24.030Z,17
2019-03-11T05:25:26.469Z,17
2019-03-11T05:26:28.608Z,17
2019-03-11T05:27:31.031Z,17
2019-03-11T05:28:32.962Z,17
2019-03-11T05:29:35.095Z,17
2019-03-11T05:30:37.256Z,17
2019-03-11T05:31:39.670Z,17
2019-03-11T05:32:41.829Z,17
2019-03-11T05:33:43.724Z,17
2019-03-11T05:34:46.161Z,17
2019-03-11T05:35:48.320Z,17
2019-03-11T05:36:50.543Z,17.1
2019-03-11T05:37:53.124Z,17
2019-03-11T05:38:55.554Z,16.9
2019-03-11T05:39:57.980Z,17
2019-03-11T05:41:00.410Z,17.1
2019-03-11T05:42:02.555Z,17
2019-03-11T05:43:04.989Z,17.1
2019-03-11T05:44:07.426Z,17
2019-03-11T05:45:09.598Z,17
2019-03-11T05:46:12.544Z,17
2019-03-11T05:47:15.004Z,17
2019-03-11T05:48:17.428Z,17
2019-03-11T05:49:19.919Z,16.9
2019-03-11T05:50:21.897Z,16.9
2019-03-11T05:52:29.052Z,16.9
2019-03-11T05:53:31.216Z,16.9
2019-03-11T05:54:33.652Z,17
2019-03-11T05:55:35.828Z,17
2019-03-11T05:56:38.037Z,17.1
2019-03-11T05:57:40.186Z,17
2019-03-11T05:58:42.612Z,16.9
2019-03-11T05:59:44.780Z,17
2019-03-11T06:00:47.205Z,17
2019-03-11T06:01:49.396Z,17
2019-03-11T06:02:51.550Z,16.9
2019-03-11T06:03:53.984Z,17
2019-03-11T06:04:56.457Z,17
2019-03-11T06:05:58.639Z,17
2019-03-11T06:07:01.111Z,17
2019-03-11T06:08:03.532Z,16.9
2019-03-11T06:09:05.962Z,17
2019-03-11T06:10:08.385Z,16.9
2019-03-11T06:11:10.549Z,16.9
2019-03-11T06:12:12.751Z,17
2019-03-11T06:13:15.194Z,16.9
2019-03-11T06:14:17.652Z,17
2019-03-11T06:15:20.123Z,17
2019-03-11T06:16:22.559Z,17
2019-03-11T06:17:24.710Z,17
2019-03-11T06:18:26.877Z,17
2019-03-11T06:19:29.024Z,16.9
2019-03-11T06:20:31.196Z,17
2019-03-11T06:21:33.094Z,17
2019-03-11T06:22:35.249Z,16.9
2019-03-11T06:23:37.398Z,17
2019-03-11T06:24:39.831Z,16.9
2019-03-11T06:25:42.277Z,17
2019-03-11T06:26:44.700Z,17
2019-03-11T06:27:46.850Z,17
2019-03-11T06:28:48.998Z,17
2019-03-11T06:29:50.906Z,17
2019-03-11T06:30:53.339Z,17
2019-03-11T06:31:55.778Z,16.9
2019-03-11T06:32:57.937Z,17
2019-03-11T06:34:00.375Z,17
2019-03-11T06:35:02.288Z,16.9
2019-03-11T06:36:04.716Z,17
2019-03-11T06:37:06.603Z,17
2019-03-11T06:38:09.030Z,16.9
2019-03-11T06:39:11.204Z,16.9
2019-03-11T06:40:13.362Z,16.9
2019-03-11T06:41:15.787Z,17
2019-03-11T06:42:18.013Z,16.9
2019-03-11T06:43:20.532Z,17
2019-03-11T06:44:23.046Z,17
2019-03-11T06:45:25.477Z,16.9
2019-03-11T06:46:27.643Z,16.9
2019-03-11T06:47:30.078Z,16.9
2019-03-11T06:48:32.498Z,16.8
2019-03-11T06:49:34.967Z,16.9
2019-03-11T06:50:37.106Z,16.9
2019-03-11T06:51:39.010Z,16.9
2019-03-11T06:52:41.175Z,17
2019-03-11T06:53:43.302Z,16.9
2019-03-11T06:54:45.459Z,16.9
2019-03-11T06:55:47.065Z,16.9
2019-03-11T06:56:49.497Z,16.9
2019-03-11T06:57:51.383Z,16.9
2019-03-11T06:58:53.817Z,16.9
2019-03-11T06:59:56.266Z,16.9
2019-03-11T07:00:58.107Z,16.8
2019-03-11T07:01:59.728Z,16.8
2019-03-11T07:03:01.884Z,16.9
2019-03-11T07:04:04.059Z,16.9
2019-03-11T07:05:06.201Z,17
2019-03-11T07:06:13.102Z,16.9
2019-03-11T07:07:14.959Z,16.9
2019-03-11T07:08:17.123Z,16.9
2019-03-11T07:09:19.372Z,16.9
2019-03-11T07:10:22.086Z,16.9
2019-03-11T07:11:23.988Z,17
2019-03-11T07:12:26.398Z,16.9
2019-03-11T07:13:28.580Z,17
2019-03-11T07:14:30.997Z,16.8
2019-03-11T07:15:33.175Z,16.9
2019-03-11T07:16:35.596Z,16.9
2019-03-11T07:17:38.040Z,16.9
2019-03-11T07:18:40.479Z,16.9
2019-03-11T07:19:42.668Z,17
2019-03-11T07:20:45.094Z,17
2019-03-11T07:21:47.512Z,16.9
2019-03-11T07:22:49.946Z,16.8
2019-03-11T07:23:52.445Z,17
2019-03-11T07:24:54.588Z,16.9
2019-03-11T07:25:56.474Z,16.9
2019-03-11T07:26:58.897Z,16.9
2019-03-11T07:28:01.339Z,16.7
2019-03-11T07:29:03.515Z,17
2019-03-11T07:30:05.939Z,16.8
2019-03-11T07:31:08.405Z,16.9
2019-03-11T07:32:10.569Z,16.9
2019-03-11T07:33:12.717Z,16.9
2019-03-11T07:34:14.875Z,16.9
2019-03-11T07:35:17.028Z,16.9
2019-03-11T07:36:19.455Z,16.9
2019-03-11T07:37:22.039Z,16.8
2019-03-11T07:38:24.543Z,16.9
2019-03-11T07:39:26.710Z,16.8
2019-03-11T07:40:30.904Z,16.9
2019-03-11T07:41:33.335Z,17
2019-03-11T07:42:35.749Z,16.9
2019-03-11T07:43:37.349Z,16.9
2019-03-11T07:44:39.789Z,16.9
2019-03-11T07:45:42.218Z,16.8
2019-03-11T07:46:45.920Z,16.9
2019-03-11T07:47:47.794Z,16.9
2019-03-11T07:48:50.224Z,16.8
2019-03-11T07:49:52.656Z,16.8
2019-03-11T07:50:55.079Z,16.9
2019-03-11T07:51:57.209Z,16.9
2019-03-11T07:52:59.093Z,16.8
2019-03-11T07:54:01.248Z,16.9
2019-03-11T07:55:03.677Z,16.9
2019-03-11T07:56:06.102Z,16.9
2019-03-11T07:57:08.000Z,16.9
2019-03-11T07:58:13.939Z,16.9
2019-03-11T07:59:16.367Z,16.8
2019-03-11T08:00:18.515Z,16.9
2019-03-11T08:01:20.931Z,16.8
2019-03-11T08:02:23.088Z,16.8
2019-03-11T08:03:25.537Z,16.9
2019-03-11T08:04:27.689Z,16.9
2019-03-11T08:05:30.279Z,16.8
2019-03-11T08:06:32.706Z,16.8
2019-03-11T08:07:35.136Z,16.9
2019-03-11T08:08:37.295Z,16.8
2019-03-11T08:09:39.452Z,16.9
2019-03-11T08:10:41.974Z,16.8
2019-03-11T08:11:44.473Z,16.8
2019-03-11T08:12:46.617Z,16.8
2019-03-11T08:13:48.496Z,16.9
2019-03-11T08:14:50.942Z,17
2019-03-11T08:15:53.101Z,16.9
2019-03-11T08:16:55.539Z,16.8
2019-03-11T08:17:57.973Z,16.9
2019-03-11T08:19:00.399Z,16.9
2019-03-11T08:20:02.826Z,16.8
2019-03-11T08:21:04.702Z,16.9
2019-03-11T08:22:07.123Z,16.9
2019-03-11T08:23:09.546Z,16.9
2019-03-11T08:24:11.968Z,16.8
2019-03-11T08:25:14.137Z,16.9
2019-03-11T08:26:16.563Z,16.9
2019-03-11T08:27:18.740Z,17
2019-03-11T08:28:20.890Z,16.9
2019-03-11T08:29:23.337Z,16.9
2019-03-11T08:30:25.773Z,16.8
2019-03-11T08:31:27.913Z,16.8
2019-03-11T08:32:30.047Z,16.9
2019-03-11T08:33:32.483Z,16.9
2019-03-11T08:34:34.912Z,17
2019-03-11T08:35:36.795Z,16.9
2019-03-11T08:36:39.218Z,17
2019-03-11T08:37:41.652Z,16.9
2019-03-11T08:38:44.079Z,16.8
2019-03-11T08:39:46.252Z,16.9
2019-03-11T08:40:48.691Z,16.8
2019-03-11T08:41:50.845Z,16.9
2019-03-11T08:42:52.981Z,16.9
2019-03-11T08:43:55.467Z,16.8
2019-03-11T08:44:57.623Z,16.8
2019-03-11T08:45:59.772Z,16.8
2019-03-11T08:47:01.648Z,16.9
2019-03-11T08:48:03.550Z,16.9
2019-03-11T08:49:05.716Z,16.9
2019-03-11T08:50:08.158Z,16.8
2019-03-11T08:51:10.038Z,16.9
2019-03-11T08:52:12.469Z,16.9
2019-03-11T08:53:14.081Z,16.9
2019-03-11T08:54:16.510Z,16.9
2019-03-11T08:55:18.657Z,16.9
2019-03-11T08:56:21.082Z,16.8
2019-03-11T08:57:23.222Z,16.9
2019-03-11T08:58:25.366Z,16.8
2019-03-11T08:59:27.517Z,16.9
2019-03-11T09:00:29.672Z,16.9
2019-03-11T09:01:31.529Z,16.8
2019-03-11T09:02:33.422Z,16.8
2019-03-11T09:03:35.280Z,16.8
2019-03-11T09:04:37.761Z,16.9
2019-03-11T09:05:40.202Z,16.9
2019-03-11T09:06:42.358Z,16.8
2019-03-11T09:07:44.249Z,16.9
2019-03-11T09:08:46.429Z,16.8
2019-03-11T09:09:48.858Z,16.8
2019-03-11T09:10:51.023Z,16.9
2019-03-11T09:11:53.201Z,16.9
2019-03-11T09:12:55.630Z,16.9
2019-03-11T09:13:57.806Z,16.8
2019-03-11T09:14:59.975Z,16.9
2019-03-11T09:16:01.600Z,16.8
2019-03-11T09:17:03.759Z,16.8
2019-03-11T09:18:06.193Z,16.8
2019-03-11T09:19:08.341Z,16.8
2019-03-11T09:20:10.496Z,16.8
2019-03-11T09:21:12.392Z,16.9
2019-03-11T09:22:14.825Z,16.8
2019-03-11T09:23:16.703Z,16.9
2019-03-11T09:24:20.191Z,16.8
2019-03-11T09:25:22.344Z,16.8
2019-03-11T09:26:24.502Z,16.8
2019-03-11T09:27:26.432Z,16.9
2019-03-11T09:28:28.510Z,16.9
2019-03-11T09:29:31.386Z,16.8
2019-03-11T09:30:33.815Z,16.8
2019-03-11T09:31:36.238Z,16.8
2019-03-11T09:32:38.670Z,16.8
2019-03-11T09:33:40.541Z,16.8
2019-03-11T09:34:43.663Z,16.8
2019-03-11T09:35:45.530Z,16.9
2019-03-11T09:36:47.680Z,16.8
2019-03-11T09:37:50.132Z,16.8
2019-03-11T09:38:52.010Z,16.8
2019-03-11T09:39:54.171Z,16.8
2019-03-11T09:40:56.591Z,16.8
2019-03-11T09:41:58.741Z,16.9
2019-03-11T09:43:00.894Z,16.8
2019-03-11T09:44:03.319Z,16.9
2019-03-11T09:45:05.745Z,16.9
2019-03-11T09:46:08.175Z,16.8
2019-03-11T09:47:10.078Z,16.8
2019-03-11T09:48:12.510Z,16.8
2019-03-11T09:49:14.941Z,16.8
2019-03-11T09:50:16.833Z,16.8
2019-03-11T09:51:19.341Z,16.9
2019-03-11T09:52:21.793Z,16.8
2019-03-11T09:53:23.930Z,16.8
2019-03-11T09:54:26.370Z,16.8
2019-03-11T09:55:28.808Z,16.9
2019-03-11T09:56:31.232Z,16.9
2019-03-11T09:57:36.902Z,16.9
2019-03-11T09:58:39.059Z,16.8
2019-03-11T09:59:41.497Z,16.9
2019-03-11T10:00:43.919Z,16.9
2019-03-11T10:01:46.364Z,16.8
2019-03-11T10:03:53.262Z,16.8
2019-03-11T10:04:55.693Z,16.8
2019-03-11T10:05:58.116Z,16.8
2019-03-11T10:07:00.272Z,16.9
2019-03-11T10:08:02.283Z,16.8
2019-03-11T10:09:04.565Z,16.8
2019-03-11T10:10:07.041Z,16.8
2019-03-11T10:11:09.483Z,16.8
2019-03-11T10:12:11.649Z,16.8
2019-03-11T10:13:14.083Z,16.9
2019-03-11T10:14:16.508Z,16.8
2019-03-11T10:15:18.643Z,16.8
2019-03-11T10:16:21.097Z,16.9
2019-03-11T10:17:23.251Z,16.7
2019-03-11T10:18:25.400Z,16.7
2019-03-11T10:19:27.854Z,16.8
2019-03-11T10:20:30.043Z,16.8
2019-03-11T10:21:32.205Z,16.8
2019-03-11T10:22:34.647Z,16.8
2019-03-11T10:23:37.071Z,16.9
2019-03-11T10:24:39.493Z,16.8
2019-03-11T10:25:41.923Z,16.8
2019-03-11T10:26:44.361Z,16.8
2019-03-11T10:27:46.526Z,16.8
2019-03-11T10:28:48.963Z,16.8
2019-03-11T10:29:51.411Z,16.8
2019-03-11T10:30:53.831Z,16.9
2019-03-11T10:31:55.999Z,16.8
2019-03-11T10:32:57.882Z,16.7
2019-03-11T10:34:00.306Z,16.7
2019-03-11T10:35:02.470Z,16.8
2019-03-11T10:36:04.914Z,16.8
2019-03-11T10:37:07.051Z,16.7
2019-03-11T10:38:09.478Z,16.8
2019-03-11T10:39:11.908Z,16.8
2019-03-11T10:40:14.357Z,16.9
2019-03-11T10:41:16.020Z,16.8
2019-03-11T10:42:18.449Z,16.8
2019-03-11T10:43:20.592Z,16.9
2019-03-11T10:44:22.745Z,16.7
2019-03-11T10:46:30.142Z,16.9
2019-03-11T10:47:32.579Z,16.8
2019-03-11T10:49:39.982Z,16.8
2019-03-11T10:50:42.498Z,16.8
2019-03-11T10:51:44.720Z,16.8
2019-03-11T10:52:47.151Z,16.8
2019-03-11T10:53:49.581Z,16.9
2019-03-11T10:54:52.004Z,16.8
2019-03-11T10:55:53.612Z,16.8
2019-03-11T10:56:56.035Z,16.8
2019-03-11T10:57:58.471Z,16.9
2019-03-11T10:59:00.902Z,16.9
2019-03-11T11:00:03.333Z,16.8
2019-03-11T11:01:05.763Z,16.9
2019-03-11T11:02:12.689Z,16.8
2019-03-11T11:03:15.114Z,16.7
2019-03-11T11:04:17.537Z,16.8
2019-03-11T11:05:19.687Z,16.8
2019-03-11T11:06:22.122Z,16.8
2019-03-11T11:07:24.564Z,16.9
2019-03-11T11:08:26.996Z,16.8
2019-03-11T11:09:28.946Z,16.8
2019-03-11T11:10:31.092Z,16.7
2019-03-11T11:11:33.526Z,16.8
2019-03-11T11:12:39.500Z,16.8
2019-03-11T11:13:41.943Z,16.8
2019-03-11T11:14:44.374Z,16.8
2019-03-11T11:15:46.810Z,16.8
2019-03-11T11:16:48.959Z,16.8
2019-03-11T11:17:51.129Z,16.7
2019-03-11T11:18:53.565Z,16.8
2019-03-11T11:21:00.729Z,16.9
2019-03-11T11:22:03.149Z,16.8
2019-03-11T11:23:05.596Z,16.8
2019-03-11T11:24:08.023Z,16.8
2019-03-11T11:25:10.461Z,16.7
2019-03-11T11:26:12.610Z,16.8
2019-03-11T11:27:14.742Z,16.8
2019-03-11T11:28:16.946Z,16.8
2019-03-11T11:29:19.202Z,16.8
2019-03-11T11:30:21.666Z,16.7
2019-03-11T11:31:24.095Z,16.8
2019-03-11T11:32:26.531Z,16.8
2019-03-11T11:33:28.673Z,16.8
2019-03-11T11:34:30.536Z,16.8
2019-03-11T11:35:32.688Z,16.8
2019-03-11T11:36:35.741Z,16.8
2019-03-11T11:37:37.892Z,16.9
2019-03-11T11:38:40.320Z,16.8
2019-03-11T11:39:42.756Z,16.8
2019-03-11T11:40:44.973Z,16.8
2019-03-11T11:41:47.406Z,16.7
2019-03-11T11:42:49.830Z,16.9
2019-03-11T11:43:52.258Z,16.8
2019-03-11T11:44:54.421Z,16.8
2019-03-11T11:45:56.872Z,16.9
2019-03-11T11:46:59.043Z,16.8
2019-03-11T11:48:01.501Z,16.8
2019-03-11T11:49:03.660Z,16.7
2019-03-11T11:50:06.074Z,16.8
2019-03-11T11:51:07.953Z,16.8
2019-03-11T11:52:10.383Z,16.8
2019-03-11T11:53:12.816Z,16.8
2019-03-11T11:54:15.240Z,16.9
2019-03-11T11:55:17.424Z,16.8
2019-03-11T11:56:19.867Z,16.8
2019-03-11T11:57:22.018Z,16.8
2019-03-11T11:58:24.438Z,16.8
2019-03-11T11:59:26.622Z,16.9
2019-03-11T12:00:29.093Z,16.8
2019-03-11T12:01:31.262Z,16.8
2019-03-11T12:02:33.697Z,16.8
2019-03-11T12:03:36.118Z,16.8
2019-03-11T12:04:38.301Z,16.9
2019-03-11T12:05:40.182Z,16.8
2019-03-11T12:06:42.612Z,16.8
2019-03-11T12:07:45.030Z,16.8
2019-03-11T12:08:47.408Z,16.8
2019-03-11T12:09:49.911Z,16.8
2019-03-11T12:10:52.334Z,16.8
2019-03-11T12:11:54.200Z,16.8
2019-03-11T12:12:56.368Z,16.9
2019-03-11T12:13:58.525Z,16.8
2019-03-11T12:15:01.042Z,16.8
2019-03-11T12:16:03.472Z,16.8
2019-03-11T12:17:05.352Z,16.8
2019-03-11T12:18:07.251Z,16.8
2019-03-11T12:19:09.113Z,16.8
2019-03-11T12:20:11.281Z,16.8
2019-03-11T12:21:13.718Z,16.8
2019-03-11T12:22:16.164Z,16.8
2019-03-11T12:23:18.591Z,16.8
2019-03-11T12:24:20.760Z,16.8
2019-03-11T12:25:23.226Z,16.8
2019-03-11T12:26:25.460Z,16.7
2019-03-11T12:27:27.903Z,16.8
2019-03-11T12:28:30.338Z,16.8
2019-03-11T12:29:32.471Z,16.8
2019-03-11T12:30:34.902Z,16.8
2019-03-11T12:31:37.061Z,16.8
2019-03-11T12:32:39.483Z,16.8
2019-03-11T12:33:41.927Z,16.9
2019-03-11T12:34:44.357Z,16.8
2019-03-11T12:35:46.564Z,16.8
2019-03-11T12:36:49.000Z,16.8
2019-03-11T12:37:51.161Z,16.8
2019-03-11T12:38:53.602Z,16.8
2019-03-11T12:39:55.766Z,16.8
2019-03-11T12:40:57.912Z,16.8
2019-03-11T12:41:59.817Z,16.8
2019-03-11T12:43:02.250Z,16.8
2019-03-11T12:44:04.424Z,16.8
2019-03-11T12:45:06.858Z,16.9
2019-03-11T12:46:09.040Z,16.8
2019-03-11T12:47:11.258Z,16.9
2019-03-11T12:48:13.425Z,16.8
2019-03-11T12:49:15.577Z,16.8
2019-03-11T12:50:16.910Z,16.8
2019-03-11T12:51:19.067Z,16.9
2019-03-11T12:52:21.212Z,16.9
2019-03-11T12:53:23.379Z,16.7
2019-03-11T12:54:25.584Z,16.8
2019-03-11T12:55:27.460Z,16.8
2019-03-11T12:56:29.895Z,16.8
2019-03-11T12:57:32.332Z,16.9
2019-03-11T12:59:41.380Z,16.8
2019-03-11T13:00:43.792Z,16.8
2019-03-11T13:01:45.951Z,16.8
2019-03-11T13:02:47.840Z,16.8
2019-03-11T13:03:50.266Z,16.8
2019-03-11T13:04:52.697Z,16.8
2019-03-11T13:05:54.590Z,16.9
2019-03-11T13:06:57.012Z,16.8
2019-03-11T13:07:59.442Z,16.8
2019-03-11T13:09:01.612Z,16.8
2019-03-11T13:10:04.036Z,16.7
2019-03-11T13:11:06.724Z,16.8
2019-03-11T13:12:09.147Z,16.8
2019-03-11T13:13:11.583Z,16.8
2019-03-11T13:14:14.024Z,16.8
2019-03-11T13:15:16.446Z,16.8
2019-03-11T13:16:18.612Z,16.7
2019-03-11T13:17:21.065Z,16.9
2019-03-11T13:18:23.483Z,16.9
2019-03-11T13:19:26.291Z,16.8
2019-03-11T13:20:28.721Z,16.8
2019-03-11T13:21:31.143Z,16.8
2019-03-11T13:22:33.302Z,16.7
2019-03-11T13:23:35.476Z,16.8
2019-03-11T13:24:37.656Z,16.8
2019-03-11T13:25:39.262Z,16.8
2019-03-11T13:26:41.690Z,16.8
2019-03-11T13:27:43.822Z,16.8
2019-03-11T13:28:45.984Z,16.9
2019-03-11T13:29:48.420Z,16.9
2019-03-11T13:30:50.846Z,16.9
2019-03-11T13:31:53.019Z,16.8
2019-03-11T13:32:55.186Z,16.8
2019-03-11T13:33:57.329Z,16.8
2019-03-11T13:34:59.760Z,16.8
2019-03-11T13:36:01.922Z,16.8
2019-03-11T13:37:04.354Z,16.8
2019-03-11T13:38:06.796Z,16.7
2019-03-11T13:39:09.216Z,16.8
2019-03-11T13:40:11.642Z,16.8
2019-03-11T13:41:13.796Z,16.7
2019-03-11T13:42:16.220Z,16.9
2019-03-11T13:43:18.654Z,16.9
2019-03-11T13:44:21.087Z,16.8
2019-03-11T13:45:23.233Z,16.8
2019-03-11T13:46:25.669Z,16.8
2019-03-11T13:47:28.101Z,16.8
2019-03-11T13:48:30.531Z,16.9
2019-03-11T13:49:32.678Z,16.8
2019-03-11T13:50:34.552Z,16.9
2019-03-11T13:51:36.992Z,16.8
2019-03-11T13:52:39.424Z,16.8
2019-03-11T13:53:41.581Z,16.9
2019-03-11T13:54:44.014Z,16.7
2019-03-11T13:55:46.156Z,16.9
2019-03-11T13:56:48.763Z,16.8
2019-03-11T13:57:51.192Z,16.8
2019-03-11T13:58:53.681Z,16.8
2019-03-11T13:59:56.101Z,16.8
2019-03-11T14:00:58.263Z,16.7
2019-03-11T14:02:00.411Z,16.8
2019-03-11T14:03:02.842Z,16.8
2019-03-11T14:04:05.348Z,16.7
2019-03-11T14:05:07.497Z,16.8